sensor_id;sensor_type;location;lat;lon;timestamp;P1;durP1;ratioP1;P2;durP2;ratioP2
13943;SDS011;7044;53.286;8.534;2023-05-10T00:00:07;10.77;;;9.07;;
13943;SDS011;7044;53.286;8.534;2023-05-10T00:02:35;11.48;;;9.23;;
13943;SDS011;7044;53.286;8.534;2023-05-10T00:05:02;9.82;;;8.50;;
13943;SDS011;7044;53.286;8.534;2023-05-10T00:07:29;11.60;;;8.55;;
13943;SDS011;7044;53.286;8.534;2023-05-10T00:09:57;11.02;;;8.45;;
13943;SDS011;7044;53.286;8.534;2023-05-10T00:12:24;10.68;;;9.05;;
13943;SDS011;7044;53.286;8.534;2023-05-10T00:14:51;10.52;;;8.07;;
13943;SDS011;7044;53.286;8.534;2023-05-10T00:17:17;10.55;;;9.35;;
13943;SDS011;7044;53.286;8.534;2023-05-10T00:19:44;10.30;;;9.18;;
13943;SDS011;7044;53.286;8.534;2023-05-10T00:22:11;10.48;;;9.35;;
13943;SDS011;7044;53.286;8.534;2023-05-10T00:24:38;15.02;;;9.55;;
13943;SDS011;7044;53.286;8.534;2023-05-10T00:27:06;10.88;;;9.57;;
13943;SDS011;7044;53.286;8.534;2023-05-10T00:29:33;11.50;;;9.23;;
13943;SDS011;7044;53.286;8.534;2023-05-10T00:31:59;11.95;;;9.55;;
13943;SDS011;7044;53.286;8.534;2023-05-10T00:34:26;12.43;;;9.77;;
13943;SDS011;7044;53.286;8.534;2023-05-10T00:36:53;12.68;;;10.25;;
13943;SDS011;7044;53.286;8.534;2023-05-10T00:39:20;13.70;;;10.45;;
13943;SDS011;7044;53.286;8.534;2023-05-10T00:41:46;13.18;;;10.90;;
13943;SDS011;7044;53.286;8.534;2023-05-10T00:44:15;14.45;;;10.75;;
13943;SDS011;7044;53.286;8.534;2023-05-10T00:46:43;13.10;;;10.52;;
13943;SDS011;7044;53.286;8.534;2023-05-10T00:49:10;11.48;;;9.73;;
13943;SDS011;7044;53.286;8.534;2023-05-10T00:51:37;13.57;;;10.32;;
13943;SDS011;7044;53.286;8.534;2023-05-10T00:54:04;13.45;;;10.50;;
13943;SDS011;7044;53.286;8.534;2023-05-10T00:56:31;11.27;;;9.75;;
13943;SDS011;7044;53.286;8.534;2023-05-10T00:58:58;13.32;;;10.48;;
13943;SDS011;7044;53.286;8.534;2023-05-10T01:01:27;11.43;;;9.73;;
13943;SDS011;7044;53.286;8.534;2023-05-10T01:03:55;11.70;;;9.73;;
13943;SDS011;7044;53.286;8.534;2023-05-10T01:06:22;13.38;;;10.60;;
13943;SDS011;7044;53.286;8.534;2023-05-10T01:08:48;12.48;;;10.82;;
13943;SDS011;7044;53.286;8.534;2023-05-10T01:11:15;12.63;;;10.15;;
13943;SDS011;7044;53.286;8.534;2023-05-10T01:13:43;13.15;;;10.10;;
13943;SDS011;7044;53.286;8.534;2023-05-10T01:16:13;15.65;;;10.95;;
13943;SDS011;7044;53.286;8.534;2023-05-10T01:18:42;15.13;;;10.60;;
13943;SDS011;7044;53.286;8.534;2023-05-10T01:21:14;10.20;;;9.07;;
13943;SDS011;7044;53.286;8.534;2023-05-10T01:23:50;11.43;;;9.38;;
13943;SDS011;7044;53.286;8.534;2023-05-10T01:26:52;10.68;;;8.63;;
13943;SDS011;7044;53.286;8.534;2023-05-10T01:32:56;10.40;;;7.95;;
13943;SDS011;7044;53.286;8.534;2023-05-10T01:35:30;10.23;;;7.47;;
13943;SDS011;7044;53.286;8.534;2023-05-10T01:38:07;7.28;;;6.45;;
13943;SDS011;7044;53.286;8.534;2023-05-10T01:40:46;7.70;;;6.60;;
13943;SDS011;7044;53.286;8.534;2023-05-10T01:43:19;7.03;;;6.13;;
13943;SDS011;7044;53.286;8.534;2023-05-10T01:45:55;7.32;;;6.00;;
13943;SDS011;7044;53.286;8.534;2023-05-10T01:48:30;7.15;;;5.88;;
13943;SDS011;7044;53.286;8.534;2023-05-10T01:50:59;6.10;;;5.50;;
13943;SDS011;7044;53.286;8.534;2023-05-10T01:53:26;7.65;;;5.80;;
13943;SDS011;7044;53.286;8.534;2023-05-10T01:55:54;6.25;;;5.30;;
13943;SDS011;7044;53.286;8.534;2023-05-10T01:58:23;6.35;;;4.70;;
13943;SDS011;7044;53.286;8.534;2023-05-10T02:00:53;5.30;;;4.70;;
13943;SDS011;7044;53.286;8.534;2023-05-10T02:03:21;9.52;;;4.82;;
13943;SDS011;7044;53.286;8.534;2023-05-10T02:05:51;13.23;;;5.18;;
13943;SDS011;7044;53.286;8.534;2023-05-10T02:08:19;6.82;;;4.43;;
13943;SDS011;7044;53.286;8.534;2023-05-10T02:10:48;5.25;;;4.40;;
13943;SDS011;7044;53.286;8.534;2023-05-10T02:13:17;6.65;;;4.60;;
13943;SDS011;7044;53.286;8.534;2023-05-10T02:15:45;4.90;;;4.32;;
13943;SDS011;7044;53.286;8.534;2023-05-10T02:18:14;4.80;;;4.38;;
13943;SDS011;7044;53.286;8.534;2023-05-10T02:20:41;30.75;;;14.35;;
13943;SDS011;7044;53.286;8.534;2023-05-10T02:23:12;99.18;;;34.03;;
13943;SDS011;7044;53.286;8.534;2023-05-10T02:25:43;194.60;;;56.85;;
13943;SDS011;7044;53.286;8.534;2023-05-10T02:28:10;143.02;;;44.30;;
13943;SDS011;7044;53.286;8.534;2023-05-10T02:30:38;63.78;;;21.92;;
13943;SDS011;7044;53.286;8.534;2023-05-10T02:33:05;36.70;;;13.85;;
13943;SDS011;7044;53.286;8.534;2023-05-10T02:35:33;16.20;;;7.90;;
13943;SDS011;7044;53.286;8.534;2023-05-10T02:38:01;49.20;;;20.27;;
13943;SDS011;7044;53.286;8.534;2023-05-10T02:40:29;109.80;;;35.78;;
13943;SDS011;7044;53.286;8.534;2023-05-10T02:42:58;128.35;;;39.40;;
13943;SDS011;7044;53.286;8.534;2023-05-10T02:45:27;54.28;;;18.27;;
13943;SDS011;7044;53.286;8.534;2023-05-10T02:47:57;46.85;;;18.15;;
13943;SDS011;7044;53.286;8.534;2023-05-10T02:50:25;21.05;;;8.30;;
13943;SDS011;7044;53.286;8.534;2023-05-10T02:52:54;16.55;;;7.88;;
13943;SDS011;7044;53.286;8.534;2023-05-10T02:55:26;15.57;;;6.47;;
13943;SDS011;7044;53.286;8.534;2023-05-10T02:57:59;8.50;;;4.45;;
13943;SDS011;7044;53.286;8.534;2023-05-10T03:00:27;5.13;;;4.10;;
13943;SDS011;7044;53.286;8.534;2023-05-10T03:02:54;5.00;;;3.50;;
13943;SDS011;7044;53.286;8.534;2023-05-10T03:05:21;4.35;;;3.90;;
13943;SDS011;7044;53.286;8.534;2023-05-10T03:07:48;5.32;;;3.80;;
13943;SDS011;7044;53.286;8.534;2023-05-10T03:10:15;5.28;;;3.60;;
13943;SDS011;7044;53.286;8.534;2023-05-10T03:12:47;4.70;;;3.90;;
13943;SDS011;7044;53.286;8.534;2023-05-10T03:15:31;4.20;;;3.70;;
13943;SDS011;7044;53.286;8.534;2023-05-10T03:18:04;6.22;;;4.15;;
13943;SDS011;7044;53.286;8.534;2023-05-10T03:20:35;5.72;;;4.10;;
13943;SDS011;7044;53.286;8.534;2023-05-10T03:23:04;6.32;;;3.83;;
13943;SDS011;7044;53.286;8.534;2023-05-10T03:25:38;5.20;;;4.18;;
13943;SDS011;7044;53.286;8.534;2023-05-10T03:28:06;4.53;;;3.95;;
13943;SDS011;7044;53.286;8.534;2023-05-10T03:30:34;4.22;;;3.67;;
13943;SDS011;7044;53.286;8.534;2023-05-10T03:33:04;5.13;;;4.10;;
13943;SDS011;7044;53.286;8.534;2023-05-10T03:35:31;4.43;;;4.03;;
13943;SDS011;7044;53.286;8.534;2023-05-10T03:37:58;5.55;;;4.13;;
13943;SDS011;7044;53.286;8.534;2023-05-10T03:40:25;8.35;;;3.60;;
13943;SDS011;7044;53.286;8.534;2023-05-10T03:42:53;4.28;;;3.70;;
13943;SDS011;7044;53.286;8.534;2023-05-10T03:45:20;5.80;;;3.70;;
13943;SDS011;7044;53.286;8.534;2023-05-10T03:47:48;4.22;;;3.53;;
13943;SDS011;7044;53.286;8.534;2023-05-10T03:50:15;5.22;;;3.90;;
13943;SDS011;7044;53.286;8.534;2023-05-10T03:52:43;4.13;;;3.72;;
13943;SDS011;7044;53.286;8.534;2023-05-10T03:55:10;11.32;;;6.75;;
13943;SDS011;7044;53.286;8.534;2023-05-10T03:57:36;31.02;;;12.10;;
13943;SDS011;7044;53.286;8.534;2023-05-10T04:00:04;30.65;;;10.43;;
13943;SDS011;7044;53.286;8.534;2023-05-10T04:02:31;39.40;;;16.67;;
13943;SDS011;7044;53.286;8.534;2023-05-10T04:04:59;12.52;;;4.82;;
13943;SDS011;7044;53.286;8.534;2023-05-10T04:07:26;6.63;;;4.38;;
13943;SDS011;7044;53.286;8.534;2023-05-10T04:09:53;5.07;;;3.88;;
13943;SDS011;7044;53.286;8.534;2023-05-10T04:12:19;3.88;;;3.50;;
13943;SDS011;7044;53.286;8.534;2023-05-10T04:14:46;7.43;;;4.10;;
13943;SDS011;7044;53.286;8.534;2023-05-10T04:17:13;4.22;;;3.58;;
13943;SDS011;7044;53.286;8.534;2023-05-10T04:19:40;10.00;;;4.05;;
13943;SDS011;7044;53.286;8.534;2023-05-10T04:22:08;6.10;;;3.80;;
13943;SDS011;7044;53.286;8.534;2023-05-10T04:24:35;7.20;;;3.63;;
13943;SDS011;7044;53.286;8.534;2023-05-10T04:27:02;7.32;;;3.60;;
13943;SDS011;7044;53.286;8.534;2023-05-10T04:29:29;7.95;;;4.07;;
13943;SDS011;7044;53.286;8.534;2023-05-10T04:31:55;5.63;;;3.83;;
13943;SDS011;7044;53.286;8.534;2023-05-10T04:34:22;4.40;;;3.90;;
13943;SDS011;7044;53.286;8.534;2023-05-10T04:36:49;5.35;;;4.28;;
13943;SDS011;7044;53.286;8.534;2023-05-10T04:39:17;5.13;;;3.97;;
13943;SDS011;7044;53.286;8.534;2023-05-10T04:41:44;4.90;;;4.00;;
13943;SDS011;7044;53.286;8.534;2023-05-10T04:44:11;6.38;;;4.32;;
13943;SDS011;7044;53.286;8.534;2023-05-10T04:46:37;4.35;;;3.95;;
13943;SDS011;7044;53.286;8.534;2023-05-10T04:49:04;4.50;;;4.10;;
13943;SDS011;7044;53.286;8.534;2023-05-10T04:51:31;5.30;;;4.53;;
13943;SDS011;7044;53.286;8.534;2023-05-10T04:53:58;5.60;;;4.63;;
13943;SDS011;7044;53.286;8.534;2023-05-10T04:56:26;5.60;;;4.50;;
13943;SDS011;7044;53.286;8.534;2023-05-10T04:58:53;5.57;;;4.55;;
13943;SDS011;7044;53.286;8.534;2023-05-10T05:01:20;8.05;;;4.47;;
13943;SDS011;7044;53.286;8.534;2023-05-10T05:03:48;6.18;;;4.53;;
13943;SDS011;7044;53.286;8.534;2023-05-10T05:06:15;7.38;;;4.90;;
13943;SDS011;7044;53.286;8.534;2023-05-10T05:08:41;5.93;;;4.50;;
13943;SDS011;7044;53.286;8.534;2023-05-10T05:11:08;4.88;;;4.35;;
13943;SDS011;7044;53.286;8.534;2023-05-10T05:13:36;5.30;;;4.65;;
13943;SDS011;7044;53.286;8.534;2023-05-10T05:16:04;6.22;;;4.35;;
13943;SDS011;7044;53.286;8.534;2023-05-10T05:18:31;6.60;;;4.40;;
13943;SDS011;7044;53.286;8.534;2023-05-10T05:20:58;6.20;;;4.65;;
13943;SDS011;7044;53.286;8.534;2023-05-10T05:23:24;7.47;;;4.70;;
13943;SDS011;7044;53.286;8.534;2023-05-10T05:25:51;6.45;;;4.60;;
13943;SDS011;7044;53.286;8.534;2023-05-10T05:28:18;6.22;;;4.40;;
13943;SDS011;7044;53.286;8.534;2023-05-10T05:30:46;11.60;;;4.53;;
13943;SDS011;7044;53.286;8.534;2023-05-10T05:33:13;5.82;;;4.93;;
13943;SDS011;7044;53.286;8.534;2023-05-10T05:35:41;8.13;;;4.72;;
13943;SDS011;7044;53.286;8.534;2023-05-10T05:38:12;4.68;;;4.18;;
13943;SDS011;7044;53.286;8.534;2023-05-10T05:40:39;5.95;;;4.63;;
13943;SDS011;7044;53.286;8.534;2023-05-10T05:43:06;5.78;;;4.15;;
13943;SDS011;7044;53.286;8.534;2023-05-10T05:45:32;6.63;;;4.72;;
13943;SDS011;7044;53.286;8.534;2023-05-10T05:48:00;6.30;;;4.72;;
13943;SDS011;7044;53.286;8.534;2023-05-10T05:50:27;6.63;;;4.80;;
13943;SDS011;7044;53.286;8.534;2023-05-10T05:52:54;4.88;;;3.92;;
13943;SDS011;7044;53.286;8.534;2023-05-10T05:55:22;8.25;;;5.43;;
13943;SDS011;7044;53.286;8.534;2023-05-10T05:57:49;5.40;;;4.57;;
13943;SDS011;7044;53.286;8.534;2023-05-10T06:00:16;5.10;;;4.63;;
13943;SDS011;7044;53.286;8.534;2023-05-10T06:02:43;8.13;;;4.93;;
13943;SDS011;7044;53.286;8.534;2023-05-10T06:05:11;6.93;;;4.68;;
13943;SDS011;7044;53.286;8.534;2023-05-10T06:07:39;5.63;;;4.93;;
13943;SDS011;7044;53.286;8.534;2023-05-10T06:10:07;11.13;;;5.38;;
13943;SDS011;7044;53.286;8.534;2023-05-10T06:12:34;10.25;;;5.50;;
13943;SDS011;7044;53.286;8.534;2023-05-10T06:15:01;8.50;;;5.22;;
13943;SDS011;7044;53.286;8.534;2023-05-10T06:17:28;6.95;;;4.93;;
13943;SDS011;7044;53.286;8.534;2023-05-10T06:19:56;7.07;;;5.43;;
13943;SDS011;7044;53.286;8.534;2023-05-10T06:22:24;6.97;;;5.60;;
13943;SDS011;7044;53.286;8.534;2023-05-10T06:24:50;6.93;;;5.53;;
13943;SDS011;7044;53.286;8.534;2023-05-10T06:27:17;8.25;;;5.20;;
13943;SDS011;7044;53.286;8.534;2023-05-10T06:29:44;7.65;;;5.75;;
13943;SDS011;7044;53.286;8.534;2023-05-10T06:32:11;7.30;;;5.78;;
13943;SDS011;7044;53.286;8.534;2023-05-10T06:34:38;10.15;;;5.50;;
13943;SDS011;7044;53.286;8.534;2023-05-10T06:37:04;7.15;;;5.53;;
13943;SDS011;7044;53.286;8.534;2023-05-10T06:39:32;6.22;;;5.63;;
13943;SDS011;7044;53.286;8.534;2023-05-10T06:41:59;10.82;;;6.40;;
13943;SDS011;7044;53.286;8.534;2023-05-10T06:44:27;7.57;;;6.15;;
13943;SDS011;7044;53.286;8.534;2023-05-10T06:46:54;7.18;;;6.47;;
13943;SDS011;7044;53.286;8.534;2023-05-10T06:49:21;7.88;;;5.68;;
13943;SDS011;7044;53.286;8.534;2023-05-10T06:51:48;8.48;;;5.80;;
13943;SDS011;7044;53.286;8.534;2023-05-10T06:54:14;8.25;;;6.35;;
13943;SDS011;7044;53.286;8.534;2023-05-10T06:56:43;8.02;;;6.28;;
13943;SDS011;7044;53.286;8.534;2023-05-10T06:59:09;7.88;;;6.80;;
13943;SDS011;7044;53.286;8.534;2023-05-10T07:01:38;8.35;;;6.82;;
13943;SDS011;7044;53.286;8.534;2023-05-10T07:04:05;6.90;;;6.20;;
13943;SDS011;7044;53.286;8.534;2023-05-10T07:06:32;7.22;;;5.15;;
13943;SDS011;7044;53.286;8.534;2023-05-10T07:08:59;4.07;;;3.53;;
13943;SDS011;7044;53.286;8.534;2023-05-10T07:11:26;3.33;;;2.70;;
13943;SDS011;7044;53.286;8.534;2023-05-10T07:13:54;2.90;;;2.58;;
13943;SDS011;7044;53.286;8.534;2023-05-10T07:16:21;3.22;;;2.88;;
13943;SDS011;7044;53.286;8.534;2023-05-10T07:18:48;2.95;;;2.63;;
13943;SDS011;7044;53.286;8.534;2023-05-10T07:21:15;3.45;;;2.80;;
13943;SDS011;7044;53.286;8.534;2023-05-10T07:23:42;5.25;;;2.92;;
13943;SDS011;7044;53.286;8.534;2023-05-10T07:26:08;3.25;;;2.95;;
13943;SDS011;7044;53.286;8.534;2023-05-10T07:28:36;3.55;;;2.80;;
13943;SDS011;7044;53.286;8.534;2023-05-10T07:31:04;2.88;;;2.58;;
13943;SDS011;7044;53.286;8.534;2023-05-10T07:33:31;2.97;;;2.67;;
13943;SDS011;7044;53.286;8.534;2023-05-10T07:35:58;3.88;;;3.10;;
13943;SDS011;7044;53.286;8.534;2023-05-10T07:38:25;3.63;;;3.33;;
13943;SDS011;7044;53.286;8.534;2023-05-10T07:40:52;3.53;;;2.78;;
13943;SDS011;7044;53.286;8.534;2023-05-10T07:43:18;4.03;;;3.63;;
13943;SDS011;7044;53.286;8.534;2023-05-10T07:45:45;4.43;;;3.28;;
13943;SDS011;7044;53.286;8.534;2023-05-10T07:48:13;4.07;;;3.67;;
13943;SDS011;7044;53.286;8.534;2023-05-10T07:50:40;3.90;;;3.42;;
13943;SDS011;7044;53.286;8.534;2023-05-10T07:53:07;4.85;;;4.03;;
13943;SDS011;7044;53.286;8.534;2023-05-10T07:55:34;6.38;;;4.20;;
13943;SDS011;7044;53.286;8.534;2023-05-10T07:58:00;5.22;;;3.67;;
13943;SDS011;7044;53.286;8.534;2023-05-10T08:00:27;13.23;;;5.72;;
13943;SDS011;7044;53.286;8.534;2023-05-10T08:02:54;6.47;;;3.75;;
13943;SDS011;7044;53.286;8.534;2023-05-10T08:05:22;5.93;;;4.05;;
13943;SDS011;7044;53.286;8.534;2023-05-10T08:07:49;4.53;;;3.78;;
13943;SDS011;7044;53.286;8.534;2023-05-10T08:10:16;5.38;;;4.13;;
13943;SDS011;7044;53.286;8.534;2023-05-10T08:12:43;5.90;;;4.10;;
13943;SDS011;7044;53.286;8.534;2023-05-10T08:15:10;5.47;;;4.10;;
13943;SDS011;7044;53.286;8.534;2023-05-10T08:17:36;4.65;;;3.92;;
13943;SDS011;7044;53.286;8.534;2023-05-10T08:20:04;4.95;;;4.45;;
13943;SDS011;7044;53.286;8.534;2023-05-10T08:22:34;5.05;;;4.22;;
13943;SDS011;7044;53.286;8.534;2023-05-10T08:25:00;5.38;;;4.18;;
13943;SDS011;7044;53.286;8.534;2023-05-10T08:27:27;8.48;;;4.20;;
13943;SDS011;7044;53.286;8.534;2023-05-10T08:29:54;4.18;;;3.78;;
13943;SDS011;7044;53.286;8.534;2023-05-10T08:32:21;4.00;;;3.40;;
13943;SDS011;7044;53.286;8.534;2023-05-10T08:34:47;3.85;;;3.45;;
13943;SDS011;7044;53.286;8.534;2023-05-10T08:37:14;6.63;;;3.90;;
13943;SDS011;7044;53.286;8.534;2023-05-10T08:39:43;5.45;;;4.05;;
13943;SDS011;7044;53.286;8.534;2023-05-10T08:42:10;5.05;;;3.28;;
13943;SDS011;7044;53.286;8.534;2023-05-10T08:44:38;4.55;;;3.38;;
13943;SDS011;7044;53.286;8.534;2023-05-10T08:47:05;3.85;;;3.45;;
13943;SDS011;7044;53.286;8.534;2023-05-10T08:49:32;4.35;;;3.38;;
13943;SDS011;7044;53.286;8.534;2023-05-10T08:52:01;5.07;;;3.67;;
13943;SDS011;7044;53.286;8.534;2023-05-10T08:54:31;4.05;;;3.13;;
13943;SDS011;7044;53.286;8.534;2023-05-10T08:57:00;3.33;;;2.63;;
13943;SDS011;7044;53.286;8.534;2023-05-10T08:59:27;2.67;;;2.47;;
13943;SDS011;7044;53.286;8.534;2023-05-10T09:01:55;3.63;;;3.03;;
13943;SDS011;7044;53.286;8.534;2023-05-10T09:04:23;4.97;;;2.88;;
13943;SDS011;7044;53.286;8.534;2023-05-10T09:06:50;3.38;;;2.50;;
13943;SDS011;7044;53.286;8.534;2023-05-10T09:09:17;3.03;;;2.72;;
13943;SDS011;7044;53.286;8.534;2023-05-10T09:11:45;2.80;;;2.58;;
13943;SDS011;7044;53.286;8.534;2023-05-10T09:14:14;2.80;;;2.60;;
13943;SDS011;7044;53.286;8.534;2023-05-10T09:16:42;2.50;;;2.20;;
13943;SDS011;7044;53.286;8.534;2023-05-10T09:19:09;2.50;;;2.05;;
13943;SDS011;7044;53.286;8.534;2023-05-10T09:21:36;2.17;;;1.98;;
13943;SDS011;7044;53.286;8.534;2023-05-10T09:24:03;1.77;;;1.63;;
13943;SDS011;7044;53.286;8.534;2023-05-10T09:26:31;1.67;;;1.58;;
13943;SDS011;7044;53.286;8.534;2023-05-10T09:28:58;6.63;;;1.77;;
13943;SDS011;7044;53.286;8.534;2023-05-10T09:34:11;1.92;;;1.75;;
13943;SDS011;7044;53.286;8.534;2023-05-10T09:36:52;3.53;;;2.75;;
13943;SDS011;7044;53.286;8.534;2023-05-10T09:39:20;2.50;;;2.20;;
13943;SDS011;7044;53.286;8.534;2023-05-10T09:41:47;2.38;;;1.50;;
13943;SDS011;7044;53.286;8.534;2023-05-10T09:44:16;2.25;;;1.50;;
13943;SDS011;7044;53.286;8.534;2023-05-10T09:46:49;2.25;;;1.30;;
13943;SDS011;7044;53.286;8.534;2023-05-10T09:49:17;2.75;;;1.88;;
13943;SDS011;7044;53.286;8.534;2023-05-10T09:51:44;1.65;;;1.40;;
13943;SDS011;7044;53.286;8.534;2023-05-10T09:54:12;1.70;;;1.40;;
13943;SDS011;7044;53.286;8.534;2023-05-10T09:56:40;2.13;;;1.25;;
13943;SDS011;7044;53.286;8.534;2023-05-10T09:59:10;1.55;;;1.45;;
13943;SDS011;7044;53.286;8.534;2023-05-10T10:01:38;2.05;;;1.55;;
13943;SDS011;7044;53.286;8.534;2023-05-10T10:04:08;1.92;;;1.55;;
13943;SDS011;7044;53.286;8.534;2023-05-10T10:06:36;2.70;;;1.50;;
13943;SDS011;7044;53.286;8.534;2023-05-10T10:09:03;1.83;;;1.67;;
13943;SDS011;7044;53.286;8.534;2023-05-10T10:11:31;5.28;;;1.95;;
13943;SDS011;7044;53.286;8.534;2023-05-10T10:13:57;2.65;;;1.80;;
13943;SDS011;7044;53.286;8.534;2023-05-10T10:16:24;2.03;;;1.90;;
13943;SDS011;7044;53.286;8.534;2023-05-10T10:18:53;2.35;;;1.80;;
13943;SDS011;7044;53.286;8.534;2023-05-10T10:21:21;1.70;;;1.60;;
13943;SDS011;7044;53.286;8.534;2023-05-10T10:23:48;2.85;;;1.85;;
13943;SDS011;7044;53.286;8.534;2023-05-10T10:26:15;4.13;;;2.25;;
13943;SDS011;7044;53.286;8.534;2023-05-10T10:28:45;2.38;;;1.75;;
13943;SDS011;7044;53.286;8.534;2023-05-10T10:31:21;3.53;;;2.08;;
13943;SDS011;7044;53.286;8.534;2023-05-10T10:33:59;2.10;;;1.90;;
13943;SDS011;7044;53.286;8.534;2023-05-10T10:36:29;2.22;;;2.03;;
13943;SDS011;7044;53.286;8.534;2023-05-10T10:38:58;2.55;;;2.30;;
13943;SDS011;7044;53.286;8.534;2023-05-10T10:41:30;2.47;;;2.28;;
13943;SDS011;7044;53.286;8.534;2023-05-10T10:47:01;4.00;;;2.85;;
13943;SDS011;7044;53.286;8.534;2023-05-10T10:49:31;3.20;;;2.90;;
13943;SDS011;7044;53.286;8.534;2023-05-10T10:54:52;2.55;;;2.00;;
13943;SDS011;7044;53.286;8.534;2023-05-10T10:57:23;3.35;;;2.00;;
13943;SDS011;7044;53.286;8.534;2023-05-10T10:59:51;3.97;;;2.20;;
13943;SDS011;7044;53.286;8.534;2023-05-10T11:02:32;3.58;;;2.15;;
13943;SDS011;7044;53.286;8.534;2023-05-10T11:05:22;2.95;;;2.53;;
13943;SDS011;7044;53.286;8.534;2023-05-10T11:07:52;2.50;;;2.30;;
13943;SDS011;7044;53.286;8.534;2023-05-10T11:10:20;2.45;;;2.17;;
13943;SDS011;7044;53.286;8.534;2023-05-10T11:12:53;3.70;;;2.22;;
13943;SDS011;7044;53.286;8.534;2023-05-10T11:15:30;2.03;;;1.65;;
13943;SDS011;7044;53.286;8.534;2023-05-10T11:17:57;1.60;;;1.50;;
13943;SDS011;7044;53.286;8.534;2023-05-10T11:20:27;1.73;;;1.25;;
13943;SDS011;7044;53.286;8.534;2023-05-10T11:23:10;1.75;;;1.52;;
13943;SDS011;7044;53.286;8.534;2023-05-10T11:25:41;2.85;;;1.20;;
13943;SDS011;7044;53.286;8.534;2023-05-10T11:28:09;2.25;;;1.67;;
13943;SDS011;7044;53.286;8.534;2023-05-10T11:30:36;1.40;;;1.30;;
13943;SDS011;7044;53.286;8.534;2023-05-10T11:33:04;0.90;;;0.90;;
13943;SDS011;7044;53.286;8.534;2023-05-10T11:35:36;0.47;;;0.40;;
13943;SDS011;7044;53.286;8.534;2023-05-10T11:38:06;0.55;;;0.50;;
13943;SDS011;7044;53.286;8.534;2023-05-10T11:40:33;0.40;;;0.40;;
13943;SDS011;7044;53.286;8.534;2023-05-10T11:43:00;0.40;;;0.40;;
13943;SDS011;7044;53.286;8.534;2023-05-10T11:45:27;0.43;;;0.43;;
13943;SDS011;7044;53.286;8.534;2023-05-10T11:47:56;0.45;;;0.43;;
13943;SDS011;7044;53.286;8.534;2023-05-10T11:50:23;0.50;;;0.50;;
13943;SDS011;7044;53.286;8.534;2023-05-10T11:52:51;0.82;;;0.60;;
13943;SDS011;7044;53.286;8.534;2023-05-10T11:55:19;1.05;;;0.65;;
13943;SDS011;7044;53.286;8.534;2023-05-10T11:57:46;0.50;;;0.50;;
13943;SDS011;7044;53.286;8.534;2023-05-10T12:00:13;0.73;;;0.60;;
13943;SDS011;7044;53.286;8.534;2023-05-10T12:02:40;1.55;;;0.73;;
13943;SDS011;7044;53.286;8.534;2023-05-10T12:05:08;0.60;;;0.60;;
13943;SDS011;7044;53.286;8.534;2023-05-10T12:07:35;0.50;;;0.50;;
13943;SDS011;7044;53.286;8.534;2023-05-10T12:10:03;0.30;;;0.30;;
13943;SDS011;7044;53.286;8.534;2023-05-10T12:12:36;0.45;;;0.45;;
13943;SDS011;7044;53.286;8.534;2023-05-10T12:15:04;2.75;;;0.52;;
13943;SDS011;7044;53.286;8.534;2023-05-10T12:17:36;0.70;;;0.70;;
13943;SDS011;7044;53.286;8.534;2023-05-10T12:20:13;3.03;;;0.52;;
13943;SDS011;7044;53.286;8.534;2023-05-10T12:22:43;0.70;;;0.70;;
13943;SDS011;7044;53.286;8.534;2023-05-10T12:25:10;0.77;;;0.77;;
13943;SDS011;7044;53.286;8.534;2023-05-10T12:27:38;1.52;;;1.42;;
13943;SDS011;7044;53.286;8.534;2023-05-10T12:30:06;0.95;;;0.95;;
13943;SDS011;7044;53.286;8.534;2023-05-10T12:32:37;0.90;;;0.90;;
13943;SDS011;7044;53.286;8.534;2023-05-10T12:35:04;3.97;;;1.05;;
13943;SDS011;7044;53.286;8.534;2023-05-10T12:37:32;0.65;;;0.65;;
13943;SDS011;7044;53.286;8.534;2023-05-10T12:40:00;0.90;;;0.90;;
13943;SDS011;7044;53.286;8.534;2023-05-10T12:42:30;1.08;;;0.98;;
13943;SDS011;7044;53.286;8.534;2023-05-10T12:44:58;1.00;;;0.90;;
13943;SDS011;7044;53.286;8.534;2023-05-10T12:47:25;1.10;;;1.00;;
13943;SDS011;7044;53.286;8.534;2023-05-10T12:49:52;1.00;;;1.00;;
13943;SDS011;7044;53.286;8.534;2023-05-10T12:52:18;1.55;;;1.35;;
13943;SDS011;7044;53.286;8.534;2023-05-10T12:54:45;1.33;;;1.10;;
13943;SDS011;7044;53.286;8.534;2023-05-10T12:57:12;2.55;;;0.82;;
13943;SDS011;7044;53.286;8.534;2023-05-10T12:59:39;2.25;;;1.17;;
13943;SDS011;7044;53.286;8.534;2023-05-10T13:02:07;1.00;;;1.00;;
13943;SDS011;7044;53.286;8.534;2023-05-10T13:04:35;4.45;;;1.88;;
13943;SDS011;7044;53.286;8.534;2023-05-10T13:07:04;1.75;;;1.65;;
13943;SDS011;7044;53.286;8.534;2023-05-10T13:09:31;4.22;;;2.00;;
13943;SDS011;7044;53.286;8.534;2023-05-10T13:11:58;3.70;;;2.45;;
13943;SDS011;7044;53.286;8.534;2023-05-10T13:14:25;3.10;;;2.67;;
13943;SDS011;7044;53.286;8.534;2023-05-10T13:16:52;3.97;;;2.75;;
13943;SDS011;7044;53.286;8.534;2023-05-10T13:19:20;3.65;;;2.58;;
13943;SDS011;7044;53.286;8.534;2023-05-10T13:21:47;4.28;;;3.22;;
13943;SDS011;7044;53.286;8.534;2023-05-10T13:24:14;4.82;;;3.55;;
13943;SDS011;7044;53.286;8.534;2023-05-10T13:26:42;3.17;;;2.67;;
13943;SDS011;7044;53.286;8.534;2023-05-10T13:29:08;3.03;;;2.70;;
13943;SDS011;7044;53.286;8.534;2023-05-10T13:31:35;4.43;;;3.28;;
13943;SDS011;7044;53.286;8.534;2023-05-10T13:34:03;5.43;;;3.33;;
13943;SDS011;7044;53.286;8.534;2023-05-10T13:36:32;4.60;;;3.47;;
13943;SDS011;7044;53.286;8.534;2023-05-10T13:38:59;7.35;;;3.70;;
13943;SDS011;7044;53.286;8.534;2023-05-10T13:41:27;4.28;;;3.50;;
13943;SDS011;7044;53.286;8.534;2023-05-10T13:43:54;4.57;;;3.80;;
13943;SDS011;7044;53.286;8.534;2023-05-10T13:46:21;6.80;;;4.57;;
13943;SDS011;7044;53.286;8.534;2023-05-10T13:48:48;6.50;;;5.00;;
13943;SDS011;7044;53.286;8.534;2023-05-10T13:51:14;8.65;;;5.00;;
13943;SDS011;7044;53.286;8.534;2023-05-10T13:53:43;6.22;;;5.63;;
13943;SDS011;7044;53.286;8.534;2023-05-10T13:56:09;7.00;;;5.57;;
13943;SDS011;7044;53.286;8.534;2023-05-10T13:58:37;10.73;;;5.63;;
13943;SDS011;7044;53.286;8.534;2023-05-10T14:01:03;7.78;;;5.95;;
13943;SDS011;7044;53.286;8.534;2023-05-10T14:03:30;6.70;;;5.75;;
13943;SDS011;7044;53.286;8.534;2023-05-10T14:05:57;7.82;;;5.72;;
13943;SDS011;7044;53.286;8.534;2023-05-10T14:08:24;7.57;;;5.68;;
13943;SDS011;7044;53.286;8.534;2023-05-10T14:10:54;9.32;;;6.03;;
13943;SDS011;7044;53.286;8.534;2023-05-10T14:13:21;6.45;;;4.97;;
13943;SDS011;7044;53.286;8.534;2023-05-10T14:15:48;4.75;;;4.00;;
13943;SDS011;7044;53.286;8.534;2023-05-10T14:18:14;4.47;;;3.85;;
13943;SDS011;7044;53.286;8.534;2023-05-10T14:20:41;5.15;;;3.92;;
13943;SDS011;7044;53.286;8.534;2023-05-10T14:23:08;3.70;;;3.40;;
13943;SDS011;7044;53.286;8.534;2023-05-10T14:25:35;3.40;;;3.10;;
13943;SDS011;7044;53.286;8.534;2023-05-10T14:28:04;4.10;;;2.55;;
13943;SDS011;7044;53.286;8.534;2023-05-10T14:30:31;3.22;;;2.72;;
13943;SDS011;7044;53.286;8.534;2023-05-10T14:32:59;3.97;;;2.40;;
13943;SDS011;7044;53.286;8.534;2023-05-10T14:35:26;3.53;;;2.13;;
13943;SDS011;7044;53.286;8.534;2023-05-10T14:37:53;2.35;;;2.10;;
13943;SDS011;7044;53.286;8.534;2023-05-10T14:40:20;3.35;;;2.58;;
13943;SDS011;7044;53.286;8.534;2023-05-10T14:42:47;2.13;;;1.92;;
13943;SDS011;7044;53.286;8.534;2023-05-10T14:45:15;4.38;;;1.92;;
13943;SDS011;7044;53.286;8.534;2023-05-10T14:47:42;1.58;;;1.48;;
13943;SDS011;7044;53.286;8.534;2023-05-10T14:50:08;3.40;;;1.60;;
13943;SDS011;7044;53.286;8.534;2023-05-10T14:52:36;1.58;;;1.45;;
13943;SDS011;7044;53.286;8.534;2023-05-10T14:55:03;1.73;;;1.63;;
13943;SDS011;7044;53.286;8.534;2023-05-10T14:57:30;2.83;;;1.85;;
13943;SDS011;7044;53.286;8.534;2023-05-10T14:59:57;2.25;;;2.05;;
13943;SDS011;7044;53.286;8.534;2023-05-10T15:02:25;2.10;;;1.90;;
13943;SDS011;7044;53.286;8.534;2023-05-10T15:04:52;6.60;;;1.77;;
13943;SDS011;7044;53.286;8.534;2023-05-10T15:07:19;2.20;;;1.88;;
13943;SDS011;7044;53.286;8.534;2023-05-10T15:09:45;2.63;;;1.75;;
13943;SDS011;7044;53.286;8.534;2023-05-10T15:12:12;2.15;;;1.95;;
13943;SDS011;7044;53.286;8.534;2023-05-10T15:14:39;2.10;;;1.90;;